Rice Lake, Wisconsin
Current Conditions -  °F | °C
As of 4:15 AM on Monday 26 Jan 2015 (Local Time) from KRPD Reporting Station
Light Snow Light Snow  
Wind Chill:   Ceiling: 4700
Heat Index: 19°   Visibility: 5mi
Dew Point: 15°   Wind: 9mph
Humidity: 85%   Direction: 130°SE
Pressure: 29.83"   Gusts: NA
Location:  45.49°N, 91.73°W
Report Text: KRPD 261015Z AUTO 13008KT 5SM -SN SCT021 BKN047 OVC065 M07/M09 A2983 RMK AO2 T10701092
Loading
Personal Weather Stations






























Interactive Weather Map New forecast layout! Learn more

10-Day Weather Forecast

Advertisements
Track Severe Weather on mobile